Time;durP1;ratioP1;P1;durP2;ratioP2;P2;SDS_P1;SDS_P2;PMS_P1;PMS_P2;Temp;Humidity;BMP_temperature;BMP_pressure;BME280_temperature;BME280_humidity;BME280_pressure;Samples;Min_cycle;Max_cycle;Signal;HPM_P1;HPM_P2
2023/04/30 00:01:44;;;;;;;7.43;6.73;;;;;;;15.07;54.93;98262.28;8380498;28;20232;-69
2023/04/30 00:05:50;;;;;;;7.37;6.77;;;;;;;15.10;54.92;98262.13;8380517;28;20256;-69
2023/04/30 00:09:53;;;;;;;8.10;7.30;;;;;;;15.02;55.13;98262.56;8380322;28;20520;-69
2023/04/30 00:13:56;;;;;;;7.43;6.77;;;;;;;14.94;55.75;98262.16;8380143;28;20221;-69
2023/04/30 00:18:00;;;;;;;8.27;7.53;;;;;;;14.93;56.06;98270.91;8379762;28;20231;-69
2023/04/30 00:22:05;;;;;;;9.10;7.20;;;;;;;14.90;55.41;98278.06;8379623;28;20421;-69
2023/04/30 00:26:08;;;;;;;7.60;6.90;;;;;;;14.92;55.50;98279.66;8379708;28;20229;-69
2023/04/30 00:30:12;;;;;;;7.70;7.00;;;;;;;14.92;55.41;98281.44;8379463;28;20236;-69
2023/04/30 00:34:17;;;;;;;8.37;7.67;;;;;;;14.77;55.78;98264.88;8379559;28;20224;-69
2023/04/30 00:38:20;;;;;;;8.43;7.70;;;;;;;14.78;55.96;98277.84;8378895;28;20530;-67
2023/04/30 00:42:23;;;;;;;7.77;7.17;;;;;;;14.75;55.68;98274.56;8378807;28;20244;-68
2023/04/30 00:46:25;;;;;;;8.37;7.60;;;;;;;14.80;55.42;98281.19;8378900;28;20251;-68
2023/04/30 00:50:30;;;;;;;7.80;7.07;;;;;;;14.79;55.32;98282.16;8378591;28;20269;-68
2023/04/30 00:54:33;;;;;;;7.60;6.97;;;;;;;14.77;55.73;98291.78;8378402;28;20233;-68
2023/04/30 00:58:35;;;;;;;7.97;7.30;;;;;;;14.76;55.74;98286.69;8378432;28;20234;-68
2023/04/30 01:02:38;;;;;;;8.20;7.40;;;;;;;14.65;55.59;98295.09;8378425;28;20232;-68
2023/04/30 01:06:43;;;;;;;8.67;7.87;;;;;;;14.66;55.64;98291.59;8378046;28;20499;-68
2023/04/30 01:10:54;;;;;;;7.97;7.33;;;;;;;14.69;55.91;98296.59;8377978;28;20424;-68
2023/04/30 01:15:02;;;;;;;8.60;7.60;;;;;;;14.63;55.57;98296.94;8378349;28;20217;-68
2023/04/30 01:19:10;;;;;;;8.13;7.50;;;;;;;14.61;55.48;98285.78;8378246;28;20301;-68
2023/04/30 01:23:22;;;;;;;8.20;7.50;;;;;;;14.60;55.32;98284.06;8378008;28;20231;-68
2023/04/30 01:27:34;;;;;;;7.90;7.17;;;;;;;14.53;55.51;98270.53;8378004;28;20236;-68
2023/04/30 01:31:38;;;;;;;8.30;7.60;;;;;;;14.64;56.03;98289.06;8378382;28;20243;-68
2023/04/30 01:36:08;;;;;;;8.03;7.37;;;;;;;14.57;56.17;98297.28;8378117;28;20429;-68
2023/04/30 01:40:21;;;;;;;8.77;7.90;;;;;;;14.55;55.67;98283.47;8377917;28;20239;-68
2023/04/30 01:44:37;;;;;;;8.30;7.60;;;;;;;14.55;55.67;98302.56;8376941;28;20228;-68
2023/04/30 01:48:48;;;;;;;7.93;7.17;;;;;;;14.52;55.86;98305.31;8377373;28;20511;-68
2023/04/30 01:52:52;;;;;;;8.57;7.77;;;;;;;14.58;55.64;98312.00;8377133;28;20223;-68
2023/04/30 01:57:02;;;;;;;8.60;7.83;;;;;;;14.56;55.68;98306.81;8377047;28;20226;-68
2023/04/30 02:01:05;;;;;;;8.63;7.73;;;;;;;14.52;55.82;98309.69;8376951;28;20239;-68
2023/04/30 02:05:10;;;;;;;8.37;7.67;;;;;;;14.45;56.29;98314.44;8376916;28;20275;-68
2023/04/30 02:09:13;;;;;;;7.97;7.30;;;;;;;14.48;56.41;98315.06;8376862;28;20524;-68
2023/04/30 02:13:18;;;;;;;8.67;7.87;;;;;;;14.44;56.33;98320.53;8377320;28;20531;-67
2023/04/30 02:17:23;;;;;;;8.63;7.83;;;;;;;14.44;56.33;98323.16;8377940;28;20228;-68
2023/04/30 02:21:31;;;;;;;9.50;8.60;;;;;;;14.36;56.41;98320.97;8384153;28;20229;-67
2023/04/30 02:25:37;;;;;;;9.50;8.60;;;;;;;14.26;56.45;98306.75;8383966;28;20230;-67
2023/04/30 02:29:40;;;;;;;8.70;8.00;;;;;;;14.36;56.79;98330.56;8382977;28;20239;-68
2023/04/30 02:33:42;;;;;;;9.23;8.43;;;;;;;14.36;56.54;98331.38;8383130;28;20471;-67
2023/04/30 02:37:51;;;;;;;9.43;8.57;;;;;;;14.33;56.34;98330.69;8382898;28;20234;-68
2023/04/30 02:41:54;;;;;;;9.23;8.40;;;;;;;13.89;56.43;98243.63;8382519;28;20240;-68
2023/04/30 02:45:56;;;;;;;9.60;8.70;;;;;;;14.32;56.13;98321.19;8382515;28;20538;-67
2023/04/30 02:50:00;;;;;;;9.63;8.67;;;;;;;14.33;56.00;98325.50;8382853;28;20229;-68
2023/04/30 02:54:04;;;;;;;9.83;8.83;;;;;;;14.33;55.63;98328.94;8382687;28;20290;-68
2023/04/30 02:58:06;;;;;;;9.67;8.83;;;;;;;14.34;55.68;98330.63;8382232;28;20236;-68
2023/04/30 03:02:09;;;;;;;9.27;8.47;;;;;;;14.34;55.70;98321.97;8382122;28;20232;-68
2023/04/30 03:06:12;;;;;;;10.03;9.17;;;;;;;14.34;55.64;98320.22;8382156;28;20232;-68
2023/04/30 03:10:17;;;;;;;10.77;9.87;;;;;;;14.32;55.48;98331.59;8382055;28;20234;-68
2023/04/30 03:14:20;;;;;;;10.77;8.90;;;;;;;14.34;55.59;98319.38;8381670;28;20545;-68
2023/04/30 03:18:23;;;;;;;10.10;9.20;;;;;;;14.20;55.58;98327.91;8382209;28;20455;-68
2023/04/30 03:22:26;;;;;;;10.77;9.77;;;;;;;14.14;56.17;98326.47;8381882;28;20263;-68
2023/04/30 03:26:31;;;;;;;10.33;9.40;;;;;;;14.33;55.30;98328.94;8381554;28;20230;-68
2023/04/30 03:30:33;;;;;;;9.77;8.83;;;;;;;14.32;55.64;98322.06;8381307;28;20235;-68
2023/04/30 03:34:36;;;;;;;10.80;9.70;;;;;;;14.31;55.93;98317.75;8381641;28;20227;-68
2023/04/30 03:38:41;;;;;;;10.43;9.43;;;;;;;14.37;55.52;98321.78;8381778;28;20554;-68
2023/04/30 03:42:45;;;;;;;10.13;9.13;;;;;;;14.30;55.54;98320.44;8381336;28;20445;-67
2023/04/30 03:46:49;;;;;;;10.37;9.33;;;;;;;14.14;55.50;98307.41;8381048;28;20258;-68
2023/04/30 03:50:52;;;;;;;11.07;10.07;;;;;;;14.20;55.80;98322.69;8381137;28;20226;-68
2023/04/30 03:54:55;;;;;;;10.20;9.30;;;;;;;14.24;55.58;98319.00;8380743;28;20239;-68
2023/04/30 03:58:59;;;;;;;10.70;9.77;;;;;;;14.12;55.77;98323.09;8380238;28;20231;-68
2023/04/30 04:03:02;;;;;;;10.93;9.93;;;;;;;14.13;55.88;98322.19;8380266;28;20237;-68
2023/04/30 04:07:06;;;;;;;11.07;10.00;;;;;;;14.12;56.00;98312.69;8380698;28;20224;-69
2023/04/30 04:11:09;;;;;;;11.00;9.87;;;;;;;14.21;56.12;98327.00;8380082;28;20238;-68
2023/04/30 04:15:14;;;;;;;10.33;9.33;;;;;;;14.15;55.65;98322.13;8380010;28;20241;-68
2023/04/30 04:19:16;;;;;;;11.10;9.00;;;;;;;14.17;56.08;98334.13;8380249;28;20232;-69
2023/04/30 04:23:19;;;;;;;9.80;8.90;;;;;;;14.09;55.81;98333.69;8379152;28;20258;-68
2023/04/30 04:27:22;;;;;;;10.00;9.00;;;;;;;14.12;55.75;98333.53;8379464;28;20317;-68
2023/04/30 04:31:29;;;;;;;9.30;8.50;;;;;;;14.12;55.62;98324.88;8379275;28;20516;-70
2023/04/30 04:35:32;;;;;;;10.93;9.93;;;;;;;14.06;56.41;98334.69;8379105;28;20522;-68
2023/04/30 04:39:36;;;;;;;10.73;9.80;;;;;;;13.50;55.70;98237.00;8378880;28;20232;-68
2023/04/30 04:43:38;;;;;;;10.10;9.10;;;;;;;14.22;55.81;98337.34;8378519;28;20233;-68
2023/04/30 04:47:43;;;;;;;10.60;9.50;;;;;;;14.21;55.82;98347.84;8378989;28;20339;-68
2023/04/30 04:51:45;;;;;;;10.50;9.60;;;;;;;14.16;55.80;98342.03;8379273;28;20245;-68
2023/04/30 04:55:50;;;;;;;10.23;9.33;;;;;;;14.26;55.24;98345.84;8378728;28;20230;-68
2023/04/30 04:59:52;;;;;;;10.77;9.67;;;;;;;14.26;56.01;98343.22;8378573;28;20296;-68
2023/04/30 05:03:57;;;;;;;9.60;8.60;;;;;;;14.33;55.07;98338.50;8379099;28;20239;-68
2023/04/30 05:08:00;;;;;;;9.30;8.43;;;;;;;14.56;54.47;98343.31;8379054;28;20232;-68
2023/04/30 05:12:04;;;;;;;10.53;9.53;;;;;;;14.49;54.07;98344.59;8377080;28;20234;-68
2023/04/30 05:16:07;;;;;;;9.87;8.23;;;;;;;14.31;53.07;98358.59;8376862;28;20227;-67
2023/04/30 05:20:12;;;;;;;9.53;8.67;;;;;;;14.02;53.95;98355.78;8378289;28;20228;-68
2023/04/30 05:24:15;;;;;;;8.70;7.90;;;;;;;14.21;54.27;98358.25;8377935;28;20241;-68
2023/04/30 05:28:17;;;;;;;8.47;7.67;;;;;;;14.44;53.63;98355.25;8377165;28;20230;-69
2023/04/30 05:32:22;;;;;;;9.67;8.77;;;;;;;14.42;53.53;98366.69;8377646;28;20234;-68
2023/04/30 05:36:29;;;;;;;8.50;7.70;;;;;;;14.48;53.39;98358.53;8377472;28;20315;-68
2023/04/30 05:40:32;;;;;;;12.20;8.80;;;;;;;13.84;53.71;98345.41;8377776;28;20226;-68
2023/04/30 05:44:40;;;;;;;9.70;8.70;;;;;;;14.20;53.66;98369.59;8377958;28;20253;-69
2023/04/30 05:48:43;;;;;;;8.43;7.63;;;;;;;14.59;52.82;98384.06;8378064;28;20234;-69
2023/04/30 05:52:48;;;;;;;8.37;7.67;;;;;;;14.66;51.03;98375.81;8381205;28;20240;-68
2023/04/30 05:56:51;;;;;;;8.43;7.67;;;;;;;14.92;51.90;98372.69;8384703;28;20535;-69
2023/04/30 06:00:54;;;;;;;8.47;7.77;;;;;;;15.15;50.56;98372.25;8384289;28;20522;-68
2023/04/30 06:04:57;;;;;;;7.63;6.93;;;;;;;14.92;50.38;98372.69;8383892;28;20236;-68
2023/04/30 06:09:02;;;;;;;8.67;7.87;;;;;;;15.07;50.35;98356.19;8383826;28;20543;-69
2023/04/30 06:13:08;;;;;;;7.93;7.03;;;;;;;15.56;49.57;98371.66;8383662;28;20231;-69
2023/04/30 06:17:11;;;;;;;7.77;7.03;;;;;;;16.00;48.36;98378.66;8383602;28;20228;-69
2023/04/30 06:21:14;;;;;;;7.80;7.00;;;;;;;15.05;50.41;98384.13;8383916;28;20226;-69
2023/04/30 06:25:19;;;;;;;8.40;7.60;;;;;;;15.03;49.46;98379.00;8383867;28;20247;-69
2023/04/30 06:29:23;;;;;;;9.00;8.03;;;;;;;14.94;49.85;98368.25;8383014;28;20230;-69
2023/04/30 06:33:25;;;;;;;8.50;7.17;;;;;;;14.79;50.31;98369.91;8382984;28;20316;-70
2023/04/30 06:37:28;;;;;;;7.37;6.80;;;;;;;16.20;47.93;98371.38;8383085;28;20236;-69
2023/04/30 06:41:34;;;;;;;7.83;7.00;;;;;;;15.47;48.82;98371.34;8382817;28;20229;-69
2023/04/30 06:45:37;;;;;;;7.90;7.10;;;;;;;16.07;48.05;98371.31;8382578;28;20439;-69
2023/04/30 06:49:40;;;;;;;7.03;6.43;;;;;;;16.13;47.65;98370.91;8382750;28;20228;-69
2023/04/30 06:53:42;;;;;;;7.60;6.90;;;;;;;15.91;47.70;98368.75;8382557;28;20217;-69
2023/04/30 06:57:47;;;;;;;7.90;6.60;;;;;;;16.23;48.02;98372.03;8382592;28;20221;-69
2023/04/30 07:01:50;;;;;;;7.70;7.00;;;;;;;16.71;46.66;98371.69;8382051;28;20221;-70
2023/04/30 07:05:53;;;;;;;7.07;6.37;;;;;;;17.04;45.58;98361.84;8381331;28;20240;-69
2023/04/30 07:09:56;;;;;;;6.77;6.17;;;;;;;16.99;45.78;98365.59;8381275;28;20259;-69
2023/04/30 07:14:00;;;;;;;6.93;6.30;;;;;;;16.36;45.50;98369.50;8381497;28;20227;-69
2023/04/30 07:18:03;;;;;;;7.10;6.40;;;;;;;16.73;45.12;98372.44;8381638;28;20227;-69
2023/04/30 07:22:06;;;;;;;6.30;5.80;;;;;;;16.61;43.58;98339.22;8381613;28;20346;-70
2023/04/30 07:26:09;;;;;;;6.50;5.73;;;;;;;17.51;43.04;98387.53;8381374;28;20227;-68
2023/04/30 07:30:13;;;;;;;5.53;4.97;;;;;;;17.63;42.46;98380.66;8381165;28;20233;-69
2023/04/30 07:34:16;;;;;;;4.63;4.20;;;;;;;17.79;45.48;98385.69;8381079;28;20413;-68
2023/04/30 07:38:20;;;;;;;4.50;4.10;;;;;;;18.00;40.80;98367.72;8380659;28;20246;-69
2023/04/30 07:42:23;;;;;;;5.27;4.37;;;;;;;17.50;40.68;98377.16;8380713;28;20243;-68
2023/04/30 07:46:27;;;;;;;5.00;4.60;;;;;;;17.29;40.81;98369.78;8380263;28;20512;-69
2023/04/30 07:50:33;;;;;;;5.87;3.83;;;;;;;17.68;41.70;98370.69;8380601;28;20228;-70
2023/04/30 07:54:38;;;;;;;4.00;3.60;;;;;;;18.61;39.84;98367.84;8380479;28;20236;-69
2023/04/30 07:58:43;;;;;;;5.00;3.40;;;;;;;19.19;38.75;98362.00;8380370;28;20309;-69
2023/04/30 08:02:49;;;;;;;3.93;3.47;;;;;;;19.09;37.69;98364.47;8381571;28;20299;-69
2023/04/30 08:06:52;;;;;;;3.93;3.33;;;;;;;19.49;38.48;98356.25;8383786;28;20288;-70
2023/04/30 08:10:55;;;;;;;5.60;3.50;;;;;;;19.06;36.84;98370.78;8380024;28;20332;-70
2023/04/30 08:15:02;;;;;;;3.60;3.30;;;;;;;19.26;36.43;98366.69;8378926;28;20225;-69
2023/04/30 08:19:07;;;;;;;4.40;2.80;;;;;;;20.47;36.57;98364.53;8379874;28;20594;-69
2023/04/30 08:23:10;;;;;;;3.03;2.57;;;;;;;20.85;36.31;98357.22;8379581;28;20237;-69
2023/04/30 08:27:12;;;;;;;3.50;3.20;;;;;;;20.09;34.17;98293.91;8379810;28;20523;-70
2023/04/30 08:31:15;;;;;;;4.70;4.30;;;;;;;20.19;36.45;98359.78;8379501;28;20406;-70
2023/04/30 08:35:19;;;;;;;3.17;2.87;;;;;;;20.44;35.00;98337.63;8378943;28;20233;-70
2023/04/30 08:39:22;;;;;;;4.97;3.13;;;;;;;20.18;33.02;98355.44;8379126;28;20229;-70
2023/04/30 08:43:25;;;;;;;6.20;5.70;;;;;;;20.20;34.92;98348.28;8379430;28;20251;-70
2023/04/30 08:47:28;;;;;;;4.87;4.40;;;;;;;18.84;35.30;98352.28;8379271;28;20251;-70
2023/04/30 08:51:34;;;;;;;3.37;3.07;;;;;;;19.06;34.85;98343.69;8378644;28;20584;-69
2023/04/30 08:55:38;;;;;;;4.47;4.10;;;;;;;20.94;33.92;98358.28;8378567;28;20241;-69
2023/04/30 08:59:45;;;;;;;6.57;3.00;;;;;;;21.80;30.85;98352.06;8378638;28;20225;-70
2023/04/30 09:03:47;;;;;;;4.67;4.37;;;;;;;20.46;32.23;98348.88;8378198;28;20241;-69
2023/04/30 09:07:52;;;;;;;3.33;2.90;;;;;;;19.83;30.85;98333.56;8379008;28;20233;-69
2023/04/30 09:12:13;;;;;;;4.47;4.17;;;;;;;21.69;28.77;98351.28;8379474;28;20240;-70
2023/04/30 09:16:20;;;;;;;2.70;2.60;;;;;;;20.71;31.67;98347.78;8378032;28;20225;-70
2023/04/30 09:20:25;;;;;;;5.37;4.87;;;;;;;22.23;27.47;98351.00;8377460;28;20237;-70
2023/04/30 09:24:45;;;;;;;1.97;1.87;;;;;;;21.35;27.91;98352.25;8378377;28;20241;-69
2023/04/30 09:28:55;;;;;;;2.30;1.73;;;;;;;22.32;26.69;98348.59;8377970;28;20221;-70
2023/04/30 09:32:58;;;;;;;4.27;2.30;;;;;;;22.31;26.99;98337.19;8377848;28;20225;-69
2023/04/30 09:37:01;;;;;;;4.00;2.17;;;;;;;23.16;26.77;98321.81;8378166;28;20279;-70
2023/04/30 09:41:07;;;;;;;2.13;1.93;;;;;;;23.67;27.13;98340.97;8378167;28;20288;-70
2023/04/30 09:45:12;;;;;;;3.10;2.77;;;;;;;22.94;27.19;98321.09;8377674;28;20295;-70
2023/04/30 09:49:19;;;;;;;3.47;3.17;;;;;;;21.77;29.19;98339.13;8377589;28;20236;-70
2023/04/30 09:53:23;;;;;;;5.70;5.20;;;;;;;21.71;28.62;98352.00;8377249;28;20231;-70
2023/04/30 09:57:27;;;;;;;2.23;2.13;;;;;;;22.38;25.55;98334.84;8377449;28;20232;-70
2023/04/30 10:01:30;;;;;;;1.90;1.80;;;;;;;22.97;27.27;98336.66;8377124;28;20236;-70
2023/04/30 10:05:36;;;;;;;2.20;2.00;;;;;;;20.45;28.46;98332.25;8377305;28;20524;-70
2023/04/30 10:09:44;;;;;;;1.60;1.50;;;;;;;23.07;27.03;98325.28;8377545;28;20225;-71
2023/04/30 10:13:54;;;;;;;1.90;1.50;;;;;;;21.67;29.57;98328.53;8377510;28;20543;-70
2023/04/30 10:18:01;;;;;;;1.93;1.40;;;;;;;23.16;29.41;98316.53;8377508;28;20295;-68
2023/04/30 10:22:04;;;;;;;2.27;1.70;;;;;;;22.68;30.56;98318.13;8377395;28;20229;-68
2023/04/30 10:26:07;;;;;;;1.93;1.60;;;;;;;23.06;31.08;98313.06;8377351;28;20225;-68
2023/04/30 10:30:13;;;;;;;1.63;1.50;;;;;;;23.49;28.58;98312.59;8377762;28;20221;-67
2023/04/30 10:34:22;;;;;;;1.90;1.80;;;;;;;22.87;28.43;98301.50;8376855;28;20566;-67
2023/04/30 10:38:28;;;;;;;2.00;1.80;;;;;;;23.17;27.03;98299.69;8377566;28;20222;-68
2023/04/30 10:42:31;;;;;;;1.83;1.67;;;;;;;24.32;25.83;98280.22;8383571;28;20292;-71
2023/04/30 10:46:39;;;;;;;2.10;1.90;;;;;;;23.51;26.29;98286.03;8383020;28;20233;-71
2023/04/30 10:50:44;;;;;;;2.67;1.70;;;;;;;25.06;25.95;98279.19;8383482;28;20225;-70
2023/04/30 10:54:50;;;;;;;1.70;1.43;;;;;;;24.54;25.47;98294.88;8383324;28;20224;-71
2023/04/30 10:58:53;;;;;;;2.30;1.60;;;;;;;25.73;23.94;98290.13;8383287;28;20232;-71
2023/04/30 11:02:59;;;;;;;2.10;1.77;;;;;;;23.53;26.16;98289.38;8381869;28;20233;-69
2023/04/30 11:07:08;;;;;;;1.80;1.57;;;;;;;23.28;24.70;98282.88;8382859;28;20229;-69
2023/04/30 11:11:13;;;;;;;1.77;1.67;;;;;;;23.40;25.55;98284.41;8382870;28;20324;-69
2023/04/30 11:15:18;;;;;;;5.17;1.90;;;;;;;22.54;25.90;98255.16;8382932;28;20241;-70
2023/04/30 11:19:23;;;;;;;1.40;1.30;;;;;;;22.77;26.46;98263.66;8381468;28;20225;-69
2023/04/30 11:23:26;;;;;;;2.17;1.80;;;;;;;22.21;26.14;98271.16;8381770;28;20433;-70
2023/04/30 11:27:43;;;;;;;1.67;1.57;;;;;;;23.82;26.40;98254.97;8382229;28;20394;-69
2023/04/30 11:31:46;;;;;;;2.00;1.37;;;;;;;23.69;27.18;98251.78;8380527;28;20225;-69
2023/04/30 11:35:54;;;;;;;1.40;1.30;;;;;;;22.95;26.92;98229.50;8381787;28;20237;-69
2023/04/30 11:39:57;;;;;;;1.50;1.20;;;;;;;22.45;26.70;98254.19;8381978;28;20312;-70
2023/04/30 11:44:00;;;;;;;1.63;1.40;;;;;;;22.97;26.14;98238.94;8381689;28;20244;-70
2023/04/30 11:48:03;;;;;;;1.30;1.20;;;;;;;23.39;26.67;98243.09;8381969;28;20255;-70
2023/04/30 11:52:08;;;;;;;1.53;1.30;;;;;;;24.04;25.76;98237.88;8380896;28;20221;-70
2023/04/30 11:56:11;;;;;;;2.07;1.47;;;;;;;22.12;25.97;98234.22;8381035;28;20260;-70
2023/04/30 12:00:15;;;;;;;1.53;1.40;;;;;;;22.71;27.43;98224.63;8380955;28;20411;-68
2023/04/30 12:04:18;;;;;;;1.83;1.00;;;;;;;22.07;25.19;98155.53;8380470;28;20252;-70
2023/04/30 12:08:28;;;;;;;1.50;1.40;;;;;;;22.03;26.36;98226.16;8380620;28;20540;-69
2023/04/30 12:12:32;;;;;;;1.20;1.10;;;;;;;23.59;25.69;98233.31;8380336;28;20237;-70
2023/04/30 12:16:47;;;;;;;1.03;1.03;;;;;;;23.70;23.19;98184.69;8379946;28;20229;-70
2023/04/30 12:20:51;;;;;;;1.17;1.10;;;;;;;24.43;23.60;98218.28;8379355;28;20256;-70
2023/04/30 12:24:55;;;;;;;2.40;1.00;;;;;;;24.32;22.13;98216.72;8379676;28;20314;-70
2023/04/30 12:28:58;;;;;;;0.97;0.80;;;;;;;24.86;23.68;98222.88;8379831;28;20229;-70
2023/04/30 12:33:02;;;;;;;1.17;1.00;;;;;;;25.59;23.21;98216.47;8379535;28;20249;-70
2023/04/30 12:37:05;;;;;;;1.20;1.07;;;;;;;23.43;23.51;98210.13;8379471;28;20307;-70
2023/04/30 12:41:12;;;;;;;2.10;1.00;;;;;;;24.13;23.84;98210.53;8379451;28;20228;-70
2023/04/30 12:45:43;;;;;;;0.90;0.90;;;;;;;23.91;25.10;98213.59;8378820;28;20228;-71
2023/04/30 12:49:46;;;;;;;0.87;0.87;;;;;;;23.88;24.14;98209.44;8378698;28;20217;-70
2023/04/30 12:53:51;;;;;;;2.23;1.10;;;;;;;24.27;23.67;98201.25;8378925;28;20287;-70
2023/04/30 12:58:06;;;;;;;1.43;0.90;;;;;;;24.69;24.93;98170.75;8378800;28;20267;-70
2023/04/30 13:02:10;;;;;;;0.70;0.70;;;;;;;23.62;23.92;98199.47;8377102;28;20248;-70
2023/04/30 13:06:15;;;;;;;1.00;1.00;;;;;;;24.48;22.44;98186.91;8378005;28;20235;-70
2023/04/30 13:10:18;;;;;;;2.67;1.10;;;;;;;24.54;24.59;98192.50;8377743;28;20240;-70
2023/04/30 13:14:26;;;;;;;1.03;1.00;;;;;;;22.38;24.31;98185.31;8378127;28;20312;-70
2023/04/30 13:18:28;;;;;;;1.93;0.80;;;;;;;23.31;23.98;98182.22;8378409;28;20248;-70
2023/04/30 13:22:34;;;;;;;1.48;1.00;;;;;;;24.10;22.86;98179.09;8376868;28;20420;-70
2023/04/30 13:26:40;;;;;;;1.03;0.90;;;;;;;23.56;22.75;98164.88;8377794;28;20244;-70
2023/04/30 13:30:45;;;;;;;1.07;0.90;;;;;;;22.82;23.31;98132.09;8377510;28;20236;-70
2023/04/30 13:34:48;;;;;;;0.90;0.90;;;;;;;23.36;23.22;98177.31;8377472;28;20228;-71
2023/04/30 13:38:50;;;;;;;1.07;1.00;;;;;;;23.23;23.38;98169.72;8378103;28;20221;-70
2023/04/30 13:42:55;;;;;;;1.07;1.00;;;;;;;23.57;22.56;98154.16;8377738;28;20225;-70
2023/04/30 13:47:00;;;;;;;1.73;1.10;;;;;;;23.99;22.90;98158.97;8377928;28;20228;-70
2023/04/30 13:51:03;;;;;;;0.70;0.70;;;;;;;23.08;23.02;98166.69;8377557;28;20291;-69
2023/04/30 13:55:07;;;;;;;0.80;0.80;;;;;;;23.86;22.35;98152.38;8377605;28;20225;-69
2023/04/30 13:59:10;;;;;;;0.73;0.73;;;;;;;22.82;22.98;98138.19;8377654;28;20236;-69
2023/04/30 14:03:14;;;;;;;0.70;0.70;;;;;;;22.76;24.12;98157.25;8377239;28;20229;-69
2023/04/30 14:07:18;;;;;;;0.80;0.80;;;;;;;23.15;22.48;98141.38;8377283;28;20539;-71
2023/04/30 14:11:21;;;;;;;0.87;0.80;;;;;;;23.62;23.75;98135.19;8377247;28;20233;-70
2023/04/30 14:15:24;;;;;;;1.00;0.80;;;;;;;23.46;23.60;98129.72;8383127;28;20236;-70
2023/04/30 14:19:28;;;;;;;1.00;0.70;;;;;;;22.88;22.88;98120.97;8383940;28;20251;-70
2023/04/30 14:23:32;;;;;;;1.00;1.00;;;;;;;23.70;23.80;98118.59;8383734;28;20229;-69
2023/04/30 14:27:35;;;;;;;1.60;1.10;;;;;;;22.37;23.23;98106.28;8383822;28;20495;-70
2023/04/30 14:31:38;;;;;;;1.10;0.80;;;;;;;22.50;23.33;98120.03;8383496;28;20229;-70
2023/04/30 14:35:42;;;;;;;1.17;0.70;;;;;;;23.64;23.19;98109.44;8382891;28;20243;-70
2023/04/30 14:39:45;;;;;;;1.90;0.80;;;;;;;22.37;25.06;98101.88;8383154;28;20225;-70
2023/04/30 14:43:48;;;;;;;0.70;0.70;;;;;;;22.93;24.41;98102.88;8383647;28;20247;-70
2023/04/30 14:47:51;;;;;;;1.13;0.50;;;;;;;23.14;24.57;98068.38;8383607;28;20421;-70
2023/04/30 14:51:56;;;;;;;1.07;0.83;;;;;;;22.49;25.20;98089.34;8383125;28;20233;-71
2023/04/30 14:55:58;;;;;;;5.63;4.97;;;;;;;22.08;26.24;98093.06;8382820;28;20458;-71
2023/04/30 15:00:01;;;;;;;1.27;0.80;;;;;;;21.01;26.39;98089.09;8383103;28;20229;-70
2023/04/30 15:04:04;;;;;;;0.50;0.50;;;;;;;22.05;25.91;98091.53;8382994;28;20236;-70
2023/04/30 15:08:09;;;;;;;0.93;0.60;;;;;;;22.35;25.77;98085.34;8382409;28;20228;-70
2023/04/30 15:12:12;;;;;;;1.90;0.60;;;;;;;22.80;25.74;98078.59;8382563;28;20229;-70
2023/04/30 15:16:15;;;;;;;4.17;1.07;;;;;;;22.74;26.61;98055.41;8382718;28;20232;-69
2023/04/30 15:20:18;;;;;;;0.70;0.70;;;;;;;22.75;26.29;98067.63;8381756;28;20378;-69
2023/04/30 15:24:22;;;;;;;2.33;2.13;;;;;;;22.20;26.37;98073.47;8381133;28;20229;-70
2023/04/30 15:28:25;;;;;;;1.73;1.40;;;;;;;21.77;26.51;98066.81;8381857;28;20400;-70
2023/04/30 15:32:28;;;;;;;0.97;0.97;;;;;;;21.57;26.57;98072.03;8381753;28;20513;-70
2023/04/30 15:36:32;;;;;;;2.17;2.07;;;;;;;21.88;26.87;98071.97;8380975;28;20344;-70
2023/04/30 15:40:37;;;;;;;1.50;0.73;;;;;;;22.48;26.53;98065.75;8381364;28;20233;-70
2023/04/30 15:44:40;;;;;;;2.80;2.60;;;;;;;21.90;26.44;98062.09;8381244;28;20236;-70
2023/04/30 15:48:42;;;;;;;1.10;1.00;;;;;;;21.56;26.92;98061.63;8380764;28;20248;-70
2023/04/30 15:52:45;;;;;;;0.50;0.50;;;;;;;21.62;26.75;98061.91;8380693;28;20229;-70
2023/04/30 15:56:50;;;;;;;0.70;0.70;;;;;;;21.13;26.91;98060.06;8380917;28;20228;-70
2023/04/30 16:00:54;;;;;;;0.80;0.73;;;;;;;20.99;27.32;98056.81;8380707;28;20225;-70
2023/04/30 16:04:58;;;;;;;0.80;0.80;;;;;;;21.15;27.26;98058.13;8380142;28;20240;-70
2023/04/30 16:09:06;;;;;;;0.87;0.87;;;;;;;21.09;26.95;98054.22;8380811;28;20524;-70
2023/04/30 16:13:10;;;;;;;0.80;0.80;;;;;;;20.61;26.99;98060.91;8380111;28;20377;-70
2023/04/30 16:17:15;;;;;;;0.80;0.80;;;;;;;20.97;27.04;98050.84;8380156;28;20224;-70
2023/04/30 16:21:17;;;;;;;0.70;0.70;;;;;;;20.83;27.91;98057.31;8379099;28;20221;-71
2023/04/30 16:25:21;;;;;;;0.80;0.80;;;;;;;20.88;27.86;98026.13;8379450;28;20414;-70
2023/04/30 16:29:25;;;;;;;0.80;0.80;;;;;;;21.16;27.45;98046.66;8379694;28;20236;-70
2023/04/30 16:33:28;;;;;;;1.23;0.60;;;;;;;21.10;27.81;98045.38;8379411;28;20495;-70
2023/04/30 16:37:31;;;;;;;1.03;0.70;;;;;;;21.19;28.09;98043.72;8378062;28;20245;-70
2023/04/30 16:41:34;;;;;;;0.70;0.70;;;;;;;20.92;28.55;98041.69;8379277;28;20315;-70
2023/04/30 16:45:39;;;;;;;1.13;1.03;;;;;;;20.91;28.40;98029.50;8379058;28;23613;-70
2023/04/30 16:49:42;;;;;;;1.60;1.50;;;;;;;20.78;29.02;98045.50;8378934;28;20321;-70
2023/04/30 16:53:44;;;;;;;1.50;1.20;;;;;;;20.00;29.29;98014.22;8378524;28;20231;-70
2023/04/30 16:57:48;;;;;;;1.90;1.00;;;;;;;20.70;29.78;98027.72;8378750;28;20223;-70
2023/04/30 17:01:55;;;;;;;0.90;0.90;;;;;;;20.70;30.69;98035.63;8378727;28;20295;-70
2023/04/30 17:05:58;;;;;;;0.87;0.87;;;;;;;20.47;30.37;98038.38;8378517;28;20529;-70
2023/04/30 17:10:01;;;;;;;1.07;0.80;;;;;;;20.36;30.51;98035.78;8378777;28;20344;-70
2023/04/30 17:14:04;;;;;;;2.40;1.40;;;;;;;20.56;30.08;98043.81;8378579;28;20230;-70
2023/04/30 17:18:08;;;;;;;1.83;1.60;;;;;;;20.23;30.20;98035.16;8378096;28;20234;-70
2023/04/30 17:22:13;;;;;;;1.70;0.90;;;;;;;20.14;29.83;98018.31;8378140;28;20545;-70
2023/04/30 17:26:17;;;;;;;0.80;0.80;;;;;;;20.11;28.40;98023.84;8377422;28;20255;-69
2023/04/30 17:30:21;;;;;;;1.90;1.10;;;;;;;19.99;28.79;98041.47;8377218;28;20447;-70
2023/04/30 17:34:26;;;;;;;1.30;1.20;;;;;;;19.98;29.87;98045.06;8377629;28;20252;-70
2023/04/30 17:38:31;;;;;;;1.13;1.13;;;;;;;19.56;29.71;98018.63;8377457;28;20247;-70
2023/04/30 17:42:34;;;;;;;1.83;1.73;;;;;;;19.60;29.80;98040.25;8377391;28;20240;-70
2023/04/30 17:46:37;;;;;;;3.20;2.90;;;;;;;19.42;30.03;98040.75;8377356;28;20440;-70
2023/04/30 17:50:41;;;;;;;2.00;1.50;;;;;;;19.58;29.81;98047.41;8377150;28;20226;-70
2023/04/30 17:54:44;;;;;;;4.23;4.03;;;;;;;19.40;30.03;98037.44;8377258;28;20221;-69
2023/04/30 17:58:47;;;;;;;4.70;4.50;;;;;;;19.67;30.92;98036.19;8377251;28;20225;-68
2023/04/30 18:02:49;;;;;;;8.50;7.90;;;;;;;19.78;32.30;98048.47;8377118;28;20232;-69
2023/04/30 18:06:54;;;;;;;10.87;10.07;;;;;;;19.70;32.69;98044.66;8377051;28;20229;-70
2023/04/30 18:10:57;;;;;;;3.67;2.50;;;;;;;19.75;33.30;98039.03;8377077;28;20255;-69
2023/04/30 18:14:59;;;;;;;3.30;3.10;;;;;;;19.60;33.05;98030.56;8377274;28;20241;-69
2023/04/30 18:19:03;;;;;;;2.63;2.00;;;;;;;19.45;34.86;98035.25;8377399;28;20230;-69
2023/04/30 18:23:08;;;;;;;2.50;2.03;;;;;;;19.32;36.46;98042.44;8376630;28;20428;-69
2023/04/30 18:27:11;;;;;;;3.10;2.90;;;;;;;19.28;33.82;98033.13;8376608;28;20332;-69
2023/04/30 18:31:14;;;;;;;2.40;2.20;;;;;;;19.09;34.38;98012.75;8376626;28;20232;-69
2023/04/30 18:35:17;;;;;;;3.13;2.27;;;;;;;19.29;36.88;98040.06;8375828;28;20240;-71
2023/04/30 18:39:22;;;;;;;2.10;2.00;;;;;;;19.05;34.70;98038.38;8377005;28;20221;-69
2023/04/30 18:43:24;;;;;;;2.67;2.20;;;;;;;19.10;34.44;98033.63;8376872;28;20236;-71
2023/04/30 18:47:29;;;;;;;1.63;1.53;;;;;;;19.03;34.59;98036.84;8375399;28;20239;-69
2023/04/30 18:51:32;;;;;;;4.37;3.87;;;;;;;18.86;34.84;98036.34;8376133;28;20225;-69
2023/04/30 18:55:36;;;;;;;1.87;1.70;;;;;;;18.65;35.60;98025.69;8376026;28;20233;-69
2023/04/30 18:59:39;;;;;;;2.90;2.50;;;;;;;18.87;35.47;98032.78;8377510;28;20232;-70
2023/04/30 19:03:42;;;;;;;5.23;3.13;;;;;;;18.76;36.08;98040.63;8381838;28;20311;-69
2023/04/30 19:07:45;;;;;;;2.80;1.80;;;;;;;18.38;37.30;97991.94;8381692;28;20474;-69